Time;durP1;ratioP1;P1;durP2;ratioP2;P2;SDS_P1;SDS_P2;PMS_P1;PMS_P2;Temp;Humidity;BMP_temperature;BMP_pressure;BME280_temperature;BME280_humidity;BME280_pressure;Samples;Min_cycle;Max_cycle;Signal;HPM_P1;HPM_P2
2021/12/23 00:00:58;;;;;;;1.35;1.25;;;-1.70;99.90;;;;;;5072939;28;20436;-85
2021/12/23 00:03:24;;;;;;;1.45;1.30;;;-1.70;99.90;;;;;;5072831;28;20042;-85
2021/12/23 00:05:52;;;;;;;2.83;1.92;;;-1.70;99.90;;;;;;5075348;28;20435;-85
2021/12/23 00:08:18;;;;;;;1.50;1.05;;;-1.70;99.90;;;;;;5068902;28;20032;-85
2021/12/23 00:10:44;;;;;;;0.77;0.77;;;-1.60;99.90;;;;;;5064568;28;20046;-85
2021/12/23 00:13:09;;;;;;;5.85;4.97;;;-1.60;99.90;;;;;;5059524;28;20400;-86
2021/12/23 00:16:17;;;;;;;1.23;1.10;;;-1.60;99.90;;;;;;5067426;28;20446;-86
2021/12/23 00:18:52;;;;;;;1.35;1.02;;;-1.60;99.90;;;;;;5110886;28;20039;-85
2021/12/23 00:24:04;;;;;;;1.38;1.27;;;-1.50;99.90;;;;;;5082471;28;20083;-85
2021/12/23 00:26:39;;;;;;;2.50;1.88;;;-1.60;99.90;;;;;;5072975;28;20165;-85
2021/12/23 00:29:04;;;;;;;3.38;2.20;;;-1.60;99.90;;;;;;5080510;28;20032;-86
2021/12/23 00:31:30;;;;;;;1.08;1.05;;;-0.80;99.90;;;;;;5106059;28;20051;-86
2021/12/23 00:33:55;;;;;;;1.02;0.82;;;-1.60;99.90;;;;;;5070064;28;20118;-85
2021/12/23 00:36:21;;;;;;;1.38;1.15;;;-1.50;99.90;;;;;;5070247;28;20039;-86
2021/12/23 00:38:52;;;;;;;2.13;1.55;;;-1.60;99.90;;;;;;5081008;28;20725;-86
2021/12/23 00:41:19;;;;;;;2.33;2.13;;;-1.50;99.90;;;;;;5092149;28;20035;-85
2021/12/23 00:43:45;;;;;;;2.08;1.92;;;-1.50;99.90;;;;;;5098749;28;20124;-85
2021/12/23 00:46:11;;;;;;;3.33;1.75;;;-1.50;99.90;;;;;;5098618;28;20031;-85
2021/12/23 00:48:39;;;;;;;2.35;1.58;;;-1.50;99.90;;;;;;5101950;27;20050;-86
2021/12/23 00:51:06;;;;;;;1.65;1.15;;;-1.50;99.90;;;;;;5102687;27;20055;-85
2021/12/23 00:53:38;;;;;;;2.03;1.08;;;-1.50;99.90;;;;;;5102726;27;20539;-85
2021/12/23 00:56:05;;;;;;;2.05;1.65;;;-1.50;99.90;;;;;;5119021;27;20121;-86
2021/12/23 00:58:30;;;;;;;2.05;1.73;;;-1.50;99.90;;;;;;5102412;27;20650;-85
2021/12/23 01:00:59;;;;;;;2.50;1.55;;;-1.50;99.90;;;;;;5119576;27;20039;-85
2021/12/23 01:03:25;;;;;;;0.50;0.50;;;-1.50;99.90;;;;;;5102408;27;20035;-85
2021/12/23 01:05:50;;;;;;;0.52;0.52;;;-1.30;99.90;;;;;;5102168;27;20518;-85
2021/12/23 01:08:19;;;;;;;4.63;4.30;;;-1.50;99.90;;;;;;5101845;27;20102;-85
2021/12/23 01:10:46;;;;;;;0.90;0.90;;;-1.40;99.90;;;;;;5119608;27;20046;-85
2021/12/23 01:13:14;;;;;;;1.77;1.67;;;-1.50;99.90;;;;;;5119452;27;20031;-85
2021/12/23 01:15:58;;;;;;;44.22;13.07;;;-1.50;99.90;;;;;;5119110;27;20035;-85
2021/12/23 01:18:29;;;;;;;1.35;1.25;;;-1.50;99.90;;;;;;5101745;27;20035;-85
2021/12/23 01:21:03;;;;;;;3.60;1.30;;;-1.50;99.90;;;;;;5101957;27;20058;-85
2021/12/23 01:23:34;;;;;;;0.40;0.40;;;-1.50;99.90;;;;;;5101943;27;20045;-85
2021/12/23 01:26:00;;;;;;;2.28;1.25;;;-1.50;99.90;;;;;;5119020;27;20496;-86
2021/12/23 01:28:26;;;;;;;1.63;1.25;;;-1.50;99.90;;;;;;5118695;27;20037;-85
2021/12/23 01:30:52;;;;;;;4.63;2.67;;;-1.50;99.90;;;;;;5118798;27;20035;-85
2021/12/23 01:33:17;;;;;;;0.75;0.75;;;-1.50;99.90;;;;;;5101674;27;20452;-85
2021/12/23 01:35:49;;;;;;;1.52;0.98;;;-1.50;99.90;;;;;;5118703;27;20069;-85
2021/12/23 01:38:16;;;;;;;2.05;1.75;;;-1.50;99.90;;;;;;5101410;27;20076;-85
2021/12/23 01:40:44;;;;;;;2.67;2.22;;;-1.50;99.90;;;;;;5088835;28;20036;-85
2021/12/23 01:43:10;;;;;;;1.20;1.10;;;-1.40;99.90;;;;;;5061431;28;20040;-86
2021/12/23 01:45:44;;;;;;;1.77;1.42;;;-1.50;99.90;;;;;;5061092;28;20220;-85
2021/12/23 01:48:10;;;;;;;1.05;0.90;;;-1.50;99.90;;;;;;5077394;28;20036;-86
2021/12/23 01:50:37;;;;;;;1.25;1.15;;;-1.50;99.90;;;;;;5061043;28;20437;-86
2021/12/23 01:53:03;;;;;;;0.70;0.70;;;-1.50;99.90;;;;;;5061221;28;20097;-85
2021/12/23 01:55:29;;;;;;;1.30;1.20;;;-1.40;99.90;;;;;;5062079;28;20051;-86
2021/12/23 01:57:57;;;;;;;0.50;0.50;;;-1.50;99.90;;;;;;5080568;28;20040;-85
2021/12/23 02:00:28;;;;;;;1.85;1.70;;;-1.50;99.90;;;;;;5079796;28;20454;-86
2021/12/23 02:02:56;;;;;;;5.50;2.58;;;-1.50;99.90;;;;;;5080925;28;20035;-85
2021/12/23 02:05:22;;;;;;;2.25;2.05;;;-1.50;99.90;;;;;;5097821;28;20124;-86
2021/12/23 02:07:48;;;;;;;1.88;1.75;;;-1.40;99.90;;;;;;5061199;28;20058;-85
2021/12/23 02:10:14;;;;;;;3.00;2.80;;;-1.50;99.90;;;;;;5060494;28;20115;-86
2021/12/23 02:12:46;;;;;;;2.30;1.80;;;-1.50;99.90;;;;;;5077576;28;20485;-85
2021/12/23 02:15:13;;;;;;;0.65;0.60;;;-1.50;99.90;;;;;;5077345;28;20040;-85
2021/12/23 02:17:39;;;;;;;1.52;1.30;;;-1.40;99.90;;;;;;5060306;28;20036;-85
2021/12/23 02:20:07;;;;;;;4.20;2.08;;;-1.40;99.90;;;;;;5060467;28;20044;-86
2021/12/23 02:22:33;;;;;;;5.40;2.80;;;-1.40;99.90;;;;;;5060663;28;20039;-86
2021/12/23 02:24:58;;;;;;;1.33;1.25;;;-1.40;99.90;;;;;;5060541;28;20032;-86
2021/12/23 02:27:24;;;;;;;0.88;0.82;;;-1.40;99.90;;;;;;5060443;28;20404;-85
2021/12/23 02:30:08;;;;;;;2.05;1.58;;;-1.40;99.90;;;;;;5079020;28;20042;-85
2021/12/23 02:32:37;;;;;;;1.13;1.02;;;-1.40;99.90;;;;;;5080412;28;20126;-86
2021/12/23 02:35:05;;;;;;;0.50;0.50;;;-1.40;99.90;;;;;;5080287;28;20039;-85
2021/12/23 02:37:30;;;;;;;0.50;0.50;;;-1.40;99.90;;;;;;5079739;28;20408;-85
2021/12/23 02:39:56;;;;;;;1.10;1.05;;;-1.40;99.90;;;;;;5063991;28;20100;-86
2021/12/23 02:42:24;;;;;;;0.50;0.50;;;-1.40;99.90;;;;;;5096987;28;20035;-85
2021/12/23 02:44:50;;;;;;;0.50;0.50;;;-1.40;99.90;;;;;;5080125;28;20031;-85
2021/12/23 02:47:18;;;;;;;0.60;0.60;;;-1.40;99.90;;;;;;5063165;28;20044;-85
2021/12/23 02:49:44;;;;;;;4.82;4.43;;;-1.40;99.90;;;;;;5080181;28;20036;-86
2021/12/23 02:52:09;;;;;;;0.40;0.40;;;-1.40;99.90;;;;;;5059852;28;20381;-85
2021/12/23 02:54:35;;;;;;;4.97;3.00;;;-1.40;99.90;;;;;;5059948;28;20401;-86
2021/12/23 02:57:00;;;;;;;1.35;1.08;;;-1.40;99.90;;;;;;5059392;28;20047;-85
2021/12/23 02:59:26;;;;;;;6.32;2.72;;;-1.40;99.90;;;;;;5059899;28;20509;-85
2021/12/23 03:01:52;;;;;;;2.42;2.25;;;-1.40;99.90;;;;;;5060074;28;20119;-85
2021/12/23 03:04:19;;;;;;;1.25;1.15;;;-1.40;99.90;;;;;;5059884;28;20124;-85
2021/12/23 03:06:44;;;;;;;2.92;2.20;;;-1.40;99.90;;;;;;5059120;28;20036;-85
2021/12/23 03:09:10;;;;;;;4.05;2.25;;;-1.40;99.90;;;;;;5072132;28;20035;-85
2021/12/23 03:11:35;;;;;;;1.98;1.25;;;-1.40;99.90;;;;;;5079579;28;20044;-86
2021/12/23 03:14:01;;;;;;;1.35;1.25;;;-1.40;99.90;;;;;;5079373;28;20035;-86
2021/12/23 03:16:33;;;;;;;7.00;4.35;;;-1.40;99.90;;;;;;5096111;28;20100;-85
2021/12/23 03:18:59;;;;;;;1.52;1.25;;;-1.40;99.90;;;;;;5096395;28;20040;-86
2021/12/23 03:21:24;;;;;;;4.40;2.00;;;-1.40;99.90;;;;;;5065193;28;20047;-85
2021/12/23 03:23:51;;;;;;;5.55;3.40;;;-1.40;99.90;;;;;;5076239;28;20036;-85
2021/12/23 03:26:17;;;;;;;3.53;2.00;;;-1.40;99.90;;;;;;5058816;28;20378;-86
2021/12/23 03:28:43;;;;;;;2.45;2.20;;;-1.40;99.90;;;;;;5067564;28;20088;-85
2021/12/23 03:31:08;;;;;;;3.20;2.40;;;-1.40;99.90;;;;;;5096049;28;20062;-85
2021/12/23 03:33:34;;;;;;;0.90;0.90;;;-1.40;99.90;;;;;;5079393;28;20047;-85
2021/12/23 03:36:00;;;;;;;2.15;1.40;;;-1.40;99.90;;;;;;5078911;28;20043;-86
2021/12/23 03:38:26;;;;;;;1.15;1.05;;;-1.40;99.90;;;;;;5078790;28;20039;-86
2021/12/23 03:40:53;;;;;;;5.03;3.28;;;-1.40;99.90;;;;;;5079236;28;20077;-86
2021/12/23 03:43:19;;;;;;;0.80;0.75;;;-1.30;99.90;;;;;;5079056;28;20503;-86
2021/12/23 03:45:46;;;;;;;1.85;1.33;;;-1.40;99.90;;;;;;5095781;28;20078;-85
2021/12/23 03:48:13;;;;;;;1.88;1.67;;;-1.30;99.90;;;;;;5078706;28;20119;-85
2021/12/23 03:50:39;;;;;;;2.80;1.80;;;-1.30;99.90;;;;;;5058964;28;20036;-85
2021/12/23 03:53:04;;;;;;;1.58;1.40;;;-1.30;99.90;;;;;;5075461;28;20126;-86
2021/12/23 03:55:30;;;;;;;3.40;2.00;;;-1.30;99.90;;;;;;5059050;28;20036;-86
2021/12/23 03:57:56;;;;;;;2.42;1.80;;;-1.30;99.90;;;;;;5058358;28;20069;-85
2021/12/23 04:00:22;;;;;;;1.95;1.65;;;-1.30;99.90;;;;;;5058658;28;20123;-86
2021/12/23 04:02:49;;;;;;;5.47;4.35;;;-1.30;99.90;;;;;;5058829;28;20396;-85
2021/12/23 04:05:15;;;;;;;0.60;0.60;;;-1.30;99.90;;;;;;5058977;28;20123;-86
2021/12/23 04:07:41;;;;;;;1.02;1.00;;;-1.30;99.90;;;;;;5075010;28;20515;-85
2021/12/23 04:10:09;;;;;;;5.72;3.72;;;-1.30;99.90;;;;;;5058555;28;20039;-86
2021/12/23 04:12:35;;;;;;;3.80;2.78;;;-1.20;99.90;;;;;;5058577;28;20404;-85
2021/12/23 04:15:01;;;;;;;0.80;0.80;;;-1.20;99.90;;;;;;5042104;28;20127;-85
2021/12/23 04:17:26;;;;;;;0.85;0.85;;;-1.20;99.90;;;;;;5058557;28;20131;-85
2021/12/23 04:19:52;;;;;;;1.70;1.50;;;-1.20;99.90;;;;;;5058411;28;20071;-85
2021/12/23 04:22:17;;;;;;;0.75;0.65;;;-1.20;99.90;;;;;;5077665;28;20463;-85
2021/12/23 04:24:43;;;;;;;5.75;4.15;;;-1.20;99.90;;;;;;5078661;28;20043;-85
2021/12/23 04:27:09;;;;;;;1.83;1.33;;;-1.20;99.90;;;;;;5078075;28;20086;-86
2021/12/23 04:29:35;;;;;;;1.65;1.15;;;-1.20;99.90;;;;;;5078740;28;20054;-85
2021/12/23 04:32:01;;;;;;;0.40;0.40;;;-1.20;99.90;;;;;;5078358;28;20533;-85
2021/12/23 04:34:27;;;;;;;2.38;1.70;;;-1.20;99.90;;;;;;5061783;28;20066;-85
2021/12/23 04:36:53;;;;;;;0.85;0.85;;;-1.20;99.90;;;;;;5078087;28;20088;-85
2021/12/23 04:39:18;;;;;;;1.73;0.95;;;-1.20;99.90;;;;;;5077990;28;20555;-86
2021/12/23 04:41:44;;;;;;;1.08;0.98;;;-1.00;99.90;;;;;;5063409;28;20028;-85
2021/12/23 04:44:10;;;;;;;2.25;1.40;;;-1.10;99.90;;;;;;5058187;28;20085;-85
2021/12/23 04:46:36;;;;;;;1.40;1.30;;;-1.10;99.90;;;;;;5057938;28;20077;-85
2021/12/23 04:49:04;;;;;;;3.67;1.83;;;-1.10;99.90;;;;;;5058086;28;20117;-85
2021/12/23 04:51:29;;;;;;;1.33;1.23;;;-1.10;99.90;;;;;;5058157;28;20094;-85
2021/12/23 04:53:55;;;;;;;1.25;1.15;;;-1.10;99.90;;;;;;5058305;28;20040;-85
2021/12/23 04:56:20;;;;;;;0.55;0.55;;;-1.10;99.90;;;;;;5057909;28;20093;-85
2021/12/23 04:58:46;;;;;;;3.25;1.40;;;-1.10;99.90;;;;;;5058278;28;20081;-85
2021/12/23 05:01:28;;;;;;;1.85;1.65;;;-1.10;99.90;;;;;;5058198;28;20036;-86
2021/12/23 05:03:53;;;;;;;1.20;1.10;;;-1.10;99.90;;;;;;5060784;28;20036;-86
2021/12/23 05:06:19;;;;;;;0.60;0.60;;;-1.10;99.90;;;;;;5057202;28;20127;-85
2021/12/23 05:08:45;;;;;;;0.88;0.88;;;-1.10;99.90;;;;;;5074274;28;20046;-86
2021/12/23 05:11:11;;;;;;;0.50;0.50;;;-1.10;99.90;;;;;;5078417;28;20071;-86
2021/12/23 05:13:38;;;;;;;0.45;0.45;;;-1.10;99.90;;;;;;5057316;28;20055;-85
2021/12/23 05:16:04;;;;;;;1.15;1.02;;;-1.10;99.90;;;;;;5057204;28;20405;-86
2021/12/23 05:18:30;;;;;;;0.60;0.60;;;-1.10;99.90;;;;;;5057230;28;20043;-85
2021/12/23 05:20:56;;;;;;;0.50;0.50;;;-1.00;99.90;;;;;;5063525;28;20035;-85
2021/12/23 05:23:21;;;;;;;0.77;0.77;;;-1.00;99.90;;;;;;5065345;28;20114;-86
2021/12/23 05:25:47;;;;;;;0.77;0.77;;;-1.10;99.90;;;;;;5094494;28;20043;-85
2021/12/23 05:28:13;;;;;;;1.45;1.35;;;-1.00;99.90;;;;;;5093801;28;20031;-85
2021/12/23 05:30:40;;;;;;;0.70;0.70;;;-1.00;99.90;;;;;;5094742;28;20173;-85
2021/12/23 05:33:05;;;;;;;1.80;1.50;;;-1.00;99.90;;;;;;5077427;28;20036;-85
2021/12/23 05:35:31;;;;;;;3.05;1.58;;;-1.00;99.90;;;;;;5067809;28;20046;-85
2021/12/23 05:37:57;;;;;;;3.10;2.83;;;-1.00;99.90;;;;;;5080558;28;20043;-86
2021/12/23 05:40:24;;;;;;;1.00;0.88;;;-0.90;99.90;;;;;;5074885;28;20040;-85
2021/12/23 05:42:51;;;;;;;1.42;1.27;;;-1.00;99.90;;;;;;5061213;28;20038;-85
2021/12/23 05:45:19;;;;;;;2.88;1.83;;;-1.00;99.90;;;;;;5062586;28;20048;-85
2021/12/23 05:47:46;;;;;;;2.60;1.98;;;-1.00;99.90;;;;;;5084065;28;20064;-86
2021/12/23 05:50:13;;;;;;;3.22;1.70;;;-1.00;99.90;;;;;;5077469;28;20040;-86
2021/12/23 05:52:39;;;;;;;2.65;1.77;;;-1.00;99.90;;;;;;5060421;28;20051;-86
2021/12/23 05:55:06;;;;;;;2.17;1.63;;;-1.00;99.90;;;;;;5064204;28;20035;-85
2021/12/23 05:57:32;;;;;;;1.58;1.38;;;-1.00;99.90;;;;;;5064856;28;20040;-85
2021/12/23 05:59:58;;;;;;;0.60;0.60;;;-1.00;99.90;;;;;;5077112;28;20040;-85
2021/12/23 06:02:24;;;;;;;1.27;1.17;;;-1.00;99.90;;;;;;5066785;28;20046;-86
2021/12/23 06:04:50;;;;;;;3.95;2.25;;;-1.00;99.90;;;;;;5062585;28;20036;-85
2021/12/23 06:07:15;;;;;;;3.38;1.58;;;-1.00;99.90;;;;;;5060522;28;20044;-85
2021/12/23 06:09:42;;;;;;;2.28;1.48;;;-1.00;99.90;;;;;;5060727;28;20443;-85
2021/12/23 06:12:08;;;;;;;7.00;3.95;;;-1.10;99.90;;;;;;5060639;28;20393;-85
2021/12/23 06:14:34;;;;;;;0.70;0.70;;;-1.00;99.90;;;;;;5060169;28;20040;-85
2021/12/23 06:17:01;;;;;;;4.72;2.53;;;-0.90;99.90;;;;;;5079818;28;20031;-85
2021/12/23 06:19:27;;;;;;;3.65;2.05;;;-0.90;99.90;;;;;;5069326;28;20098;-85
2021/12/23 06:21:53;;;;;;;2.53;1.77;;;-0.90;99.90;;;;;;5080744;28;20516;-85
2021/12/23 06:24:19;;;;;;;1.73;1.45;;;-0.90;99.90;;;;;;5077335;28;20440;-86
2021/12/23 06:26:45;;;;;;;6.65;3.15;;;-0.90;99.90;;;;;;5059970;28;20036;-85
2021/12/23 06:29:11;;;;;;;3.28;2.03;;;-0.90;99.90;;;;;;5076763;28;20132;-85
2021/12/23 06:31:36;;;;;;;1.50;1.35;;;-0.90;99.90;;;;;;5060047;28;20071;-86
2021/12/23 06:34:02;;;;;;;4.57;3.55;;;-0.90;99.90;;;;;;5060341;28;20492;-85
2021/12/23 06:36:28;;;;;;;1.67;1.42;;;-0.90;99.90;;;;;;5059645;28;20040;-85
2021/12/23 06:38:53;;;;;;;8.63;3.97;;;-0.90;99.90;;;;;;5059987;28;20039;-86
2021/12/23 06:41:19;;;;;;;4.47;2.60;;;-0.90;99.90;;;;;;5060176;28;20052;-85
2021/12/23 06:43:45;;;;;;;3.28;2.95;;;-0.90;99.90;;;;;;5059679;28;20066;-85
2021/12/23 06:46:11;;;;;;;1.48;1.38;;;-0.90;99.90;;;;;;5063548;28;20043;-85
2021/12/23 06:48:37;;;;;;;1.17;1.08;;;-0.80;99.90;;;;;;5063070;28;20412;-85
2021/12/23 06:51:03;;;;;;;2.03;1.52;;;-0.80;99.90;;;;;;5059468;28;20032;-85
2021/12/23 06:53:29;;;;;;;4.40;2.05;;;-0.80;99.90;;;;;;5059883;28;20174;-85
2021/12/23 06:55:56;;;;;;;4.72;3.65;;;-0.80;99.90;;;;;;5059376;28;20125;-86
2021/12/23 06:58:23;;;;;;;5.43;2.03;;;-0.80;99.90;;;;;;5059026;28;20032;-85
2021/12/23 07:00:50;;;;;;;3.75;2.67;;;-0.80;99.90;;;;;;5059171;28;20051;-86
2021/12/23 07:03:16;;;;;;;1.45;1.35;;;-0.80;99.90;;;;;;5059435;28;20036;-85
2021/12/23 07:05:42;;;;;;;4.55;3.40;;;-0.80;99.90;;;;;;5079191;28;20404;-85
2021/12/23 07:08:13;;;;;;;3.88;2.47;;;-0.80;99.90;;;;;;5078526;28;20523;-85
2021/12/23 07:10:39;;;;;;;3.80;2.80;;;-0.80;99.90;;;;;;5051334;28;20031;-85
2021/12/23 07:13:06;;;;;;;5.35;3.60;;;-0.80;99.90;;;;;;5059186;28;20058;-85
2021/12/23 07:15:32;;;;;;;4.15;3.55;;;-0.70;99.90;;;;;;5076818;28;20480;-84
2021/12/23 07:18:00;;;;;;;1.38;1.27;;;-0.70;99.90;;;;;;5078858;28;20050;-85
2021/12/23 07:20:27;;;;;;;6.68;3.42;;;-0.70;99.90;;;;;;5079233;28;20032;-85
2021/12/23 07:22:54;;;;;;;5.05;3.45;;;-0.70;99.90;;;;;;5078957;28;20039;-85
2021/12/23 07:25:20;;;;;;;14.38;6.47;;;-0.70;99.90;;;;;;5095739;28;20042;-85
2021/12/23 07:27:46;;;;;;;7.18;4.85;;;-0.70;99.90;;;;;;5078892;28;20126;-85
2021/12/23 07:30:15;;;;;;;13.18;6.30;;;-0.60;99.90;;;;;;5079005;28;20044;-85
2021/12/23 07:32:42;;;;;;;9.73;5.93;;;-0.50;99.90;;;;;;5066392;28;20031;-85
2021/12/23 07:35:08;;;;;;;14.02;7.47;;;-0.60;99.90;;;;;;5070976;28;20177;-85
2021/12/23 07:37:35;;;;;;;17.73;9.20;;;-0.60;99.90;;;;;;5078371;28;20035;-85
2021/12/23 07:40:16;;;;;;;11.55;6.88;;;-0.60;99.90;;;;;;5078696;28;20127;-85
2021/12/23 07:42:53;;;;;;;13.25;6.60;;;-0.60;99.90;;;;;;5078972;28;20035;-85
2021/12/23 07:45:21;;;;;;;8.40;5.05;;;-0.60;99.90;;;;;;5080442;28;20405;-85
2021/12/23 07:47:47;;;;;;;10.60;5.13;;;-0.60;99.90;;;;;;5078506;28;20523;-85
2021/12/23 07:50:13;;;;;;;11.32;6.40;;;-0.60;99.90;;;;;;5078735;28;20035;-85
2021/12/23 07:52:38;;;;;;;15.38;8.05;;;-0.60;99.90;;;;;;5078713;28;20045;-85
2021/12/23 07:55:04;;;;;;;11.05;6.43;;;-0.60;99.90;;;;;;5063120;28;20040;-85
2021/12/23 07:57:30;;;;;;;10.80;5.95;;;-0.50;99.90;;;;;;5081941;28;20035;-86
2021/12/23 07:59:58;;;;;;;19.35;9.65;;;-0.60;99.90;;;;;;5070255;28;20601;-85
2021/12/23 08:02:24;;;;;;;7.50;5.13;;;-0.60;99.90;;;;;;5064552;28;20032;-85
2021/12/23 08:04:50;;;;;;;8.02;4.22;;;-0.50;99.90;;;;;;5058416;28;20032;-86
2021/12/23 08:07:15;;;;;;;11.10;6.65;;;-0.50;99.90;;;;;;5041718;28;20036;-85
2021/12/23 08:09:41;;;;;;;10.68;6.75;;;-0.50;99.90;;;;;;5058154;28;20101;-85
2021/12/23 08:12:08;;;;;;;10.52;6.28;;;-0.50;99.90;;;;;;5058552;28;20036;-84
2021/12/23 08:14:34;;;;;;;13.70;7.78;;;-0.50;99.90;;;;;;5062637;28;20071;-85
2021/12/23 08:17:00;;;;;;;11.18;5.68;;;-0.50;99.90;;;;;;5077839;28;20040;-85
2021/12/23 08:19:25;;;;;;;14.70;8.35;;;-0.50;99.90;;;;;;5078200;28;20088;-85
2021/12/23 08:21:51;;;;;;;10.90;5.90;;;-0.60;99.90;;;;;;5058538;28;20509;-85
2021/12/23 08:24:20;;;;;;;12.32;6.60;;;-0.60;99.90;;;;;;5112346;28;20042;-85
2021/12/23 08:26:51;;;;;;;12.00;5.90;;;-0.50;99.90;;;;;;5094601;28;20039;-84
2021/12/23 08:29:19;;;;;;;14.05;8.07;;;-0.50;99.90;;;;;;5078207;28;20036;-85
2021/12/23 08:31:46;;;;;;;19.50;10.43;;;-0.50;99.90;;;;;;5069427;28;20036;-85
2021/12/23 08:34:11;;;;;;;9.70;6.05;;;-0.50;99.90;;;;;;5088111;28;20047;-86
2021/12/23 08:36:38;;;;;;;8.90;5.38;;;-0.50;99.90;;;;;;5093831;28;20031;-85
2021/12/23 08:39:04;;;;;;;17.38;9.25;;;-0.50;99.90;;;;;;5094516;28;20092;-85
2021/12/23 08:41:30;;;;;;;12.18;6.45;;;-0.50;99.90;;;;;;5077894;28;20067;-85
2021/12/23 08:43:55;;;;;;;21.02;10.88;;;-0.50;99.90;;;;;;5065949;28;20036;-85
2021/12/23 08:46:21;;;;;;;17.35;10.38;;;-0.50;99.90;;;;;;5060174;28;20031;-85
2021/12/23 08:48:47;;;;;;;13.02;6.80;;;-0.50;99.90;;;;;;5061368;28;20432;-86
2021/12/23 08:51:13;;;;;;;20.25;9.25;;;-0.50;99.90;;;;;;5067355;28;20055;-85
2021/12/23 08:53:39;;;;;;;19.00;9.13;;;-0.50;99.90;;;;;;5087681;28;20408;-85
2021/12/23 08:56:08;;;;;;;14.50;8.18;;;-0.50;99.90;;;;;;5076908;28;20037;-86
2021/12/23 08:58:34;;;;;;;12.30;6.35;;;-0.30;99.90;;;;;;5077355;28;20119;-86
2021/12/23 09:01:26;;;;;;;19.38;10.20;;;-0.50;99.90;;;;;;5066420;28;20032;-85
2021/12/23 09:03:51;;;;;;;22.70;12.27;;;-0.40;99.90;;;;;;5073716;28;20036;-86
2021/12/23 09:06:17;;;;;;;16.33;7.40;;;-0.40;99.90;;;;;;5062356;28;20024;-86
2021/12/23 09:08:43;;;;;;;9.57;5.00;;;-0.40;99.90;;;;;;5067466;28;20036;-86
2021/12/23 09:11:08;;;;;;;15.05;7.75;;;-0.40;99.90;;;;;;5092433;28;20145;-85
2021/12/23 09:13:34;;;;;;;16.88;9.48;;;-0.40;99.90;;;;;;5070856;28;20507;-86
2021/12/23 09:16:00;;;;;;;16.13;8.10;;;-0.40;99.90;;;;;;5076873;27;20039;-86
2021/12/23 09:18:26;;;;;;;23.48;10.13;;;-0.40;99.90;;;;;;5086448;28;20032;-86
2021/12/23 09:20:53;;;;;;;12.57;6.63;;;-0.40;99.90;;;;;;5115278;28;20083;-86
2021/12/23 09:23:19;;;;;;;23.50;10.35;;;-0.40;99.90;;;;;;5080915;28;20035;-85
2021/12/23 09:25:47;;;;;;;19.58;9.23;;;-0.40;99.90;;;;;;5074356;28;20040;-85
2021/12/23 09:33:24;;;;;;;20.25;9.80;;;-0.30;99.90;;;;;;5081228;28;20051;-85
2021/12/23 09:35:49;;;;;;;21.88;10.70;;;-0.30;99.90;;;;;;5079796;28;20084;-85
2021/12/23 09:38:16;;;;;;;14.05;8.02;;;-0.30;99.90;;;;;;5079116;27;20476;-85
2021/12/23 09:40:43;;;;;;;12.15;6.88;;;-0.30;99.90;;;;;;5086551;28;20028;-85
2021/12/23 09:43:12;;;;;;;11.68;5.80;;;-0.30;99.90;;;;;;5093570;28;20071;-85
2021/12/23 09:45:40;;;;;;;17.45;9.52;;;-0.30;99.90;;;;;;5080729;28;20040;-86
2021/12/23 09:48:07;;;;;;;17.98;9.10;;;-0.30;99.90;;;;;;5070579;28;20036;-86
2021/12/23 09:50:40;;;;;;;14.80;7.43;;;-0.20;99.90;;;;;;5077298;28;20051;-85
2021/12/23 09:53:08;;;;;;;18.45;9.90;;;-0.20;99.90;;;;;;5043625;28;20043;-86
2021/12/23 09:55:36;;;;;;;17.10;9.40;;;-0.20;99.90;;;;;;5062007;28;20508;-86
2021/12/23 09:58:03;;;;;;;19.48;7.18;;;-0.20;99.90;;;;;;5074699;28;20072;-86
2021/12/23 10:00:31;;;;;;;17.30;9.43;;;-0.20;99.90;;;;;;5060223;28;20133;-86
2021/12/23 10:02:59;;;;;;;12.55;5.72;;;-0.20;99.90;;;;;;5063506;28;20169;-86
2021/12/23 10:05:27;;;;;;;14.95;6.07;;;-0.20;99.90;;;;;;5081376;28;20408;-86
2021/12/23 10:07:56;;;;;;;13.65;7.60;;;-0.20;99.90;;;;;;5079097;28;20031;-86
2021/12/23 10:10:29;;;;;;;11.85;6.80;;;-0.20;99.90;;;;;;5089524;27;20172;-86
2021/12/23 10:28:02;;;;;;;8.60;5.90;;;-0.10;99.90;;;;;;5091196;28;20419;-85
2021/12/23 10:38:07;;;;;;;8.13;5.38;;;-0.10;99.90;;;;;;5076025;28;20488;-85
2021/12/23 10:40:35;;;;;;;23.02;10.25;;;-0.10;99.90;;;;;;5059656;28;20036;-85
2021/12/23 10:43:01;;;;;;;5.65;3.92;;;0.00;99.90;;;;;;5059413;28;20040;-85
2021/12/23 10:45:44;;;;;;;10.18;6.10;;;-0.10;99.90;;;;;;5080509;28;20038;-86
2021/12/23 10:48:13;;;;;;;22.42;10.90;;;0.00;99.90;;;;;;5059076;28;20123;-86
2021/12/23 10:50:44;;;;;;;3.63;2.58;;;-0.10;99.90;;;;;;5059291;28;20062;-85
2021/12/23 10:53:35;;;;;;;4.15;2.72;;;0.00;99.90;;;;;;5059456;28;20450;-85
2021/12/23 10:59:15;;;;;;;19.48;9.43;;;0.00;99.90;;;;;;5075851;28;20122;-85
2021/12/23 11:02:09;;;;;;;13.73;6.97;;;0.00;99.90;;;;;;5076037;28;20489;-85
2021/12/23 11:05:06;;;;;;;22.63;10.55;;;0.00;99.90;;;;;;5059170;28;20067;-85
2021/12/23 11:08:02;;;;;;;27.23;12.45;;;0.10;99.90;;;;;;5068469;28;20046;-85
2021/12/23 11:38:33;;;;;;;18.27;8.10;;;0.20;99.90;;;;;;5092927;28;20518;-86
2021/12/23 11:43:55;;;;;;;15.75;6.95;;;0.20;99.90;;;;;;5079156;28;20047;-85
2021/12/23 11:46:50;;;;;;;22.38;11.88;;;0.20;99.90;;;;;;5099149;27;20043;-86
2021/12/23 11:49:18;;;;;;;13.80;8.07;;;0.40;99.90;;;;;;5088781;27;20131;-85
2021/12/23 11:54:26;;;;;;;24.05;11.70;;;1.30;99.90;;;;;;5087384;28;20527;-86
2021/12/23 11:57:01;;;;;;;14.40;7.40;;;0.20;99.90;;;;;;5083519;27;20036;-86
2021/12/23 11:59:26;;;;;;;9.57;5.07;;;0.20;99.90;;;;;;5098565;27;20038;-85
2021/12/23 12:01:54;;;;;;;13.10;7.78;;;0.20;99.90;;;;;;5089034;28;20043;-85
2021/12/23 12:04:37;;;;;;;8.27;5.13;;;0.20;99.90;;;;;;5070832;28;20438;-86
2021/12/23 12:07:16;;;;;;;17.95;9.70;;;0.20;99.90;;;;;;5091507;28;20042;-86
2021/12/23 12:10:00;;;;;;;15.52;5.97;;;0.10;99.90;;;;;;5078256;28;20043;-86
2021/12/23 12:12:31;;;;;;;8.55;5.07;;;0.30;99.90;;;;;;5074305;28;20052;-87
2021/12/23 12:15:05;;;;;;;18.85;9.45;;;0.30;99.90;;;;;;5074415;28;20048;-87
2021/12/23 12:21:31;;;;;;;14.68;7.05;;;0.30;99.90;;;;;;5100981;28;20078;-87
2021/12/23 12:24:17;;;;;;;12.88;6.78;;;0.30;99.90;;;;;;5057768;28;20044;-87
2021/12/23 12:30:21;;;;;;;10.43;4.88;;;0.30;99.90;;;;;;5074545;28;20408;-86
2021/12/23 12:32:47;;;;;;;14.63;7.95;;;0.30;99.90;;;;;;5093163;28;20044;-86
2021/12/23 12:35:20;;;;;;;14.48;7.45;;;0.30;99.90;;;;;;5077802;28;20126;-87
2021/12/23 12:37:50;;;;;;;9.85;4.82;;;0.30;99.90;;;;;;5058946;28;20598;-86
2021/12/23 12:40:57;;;;;;;7.35;4.47;;;0.40;99.90;;;;;;5062246;28;20123;-87
2021/12/23 12:43:33;;;;;;;12.05;6.40;;;0.30;99.90;;;;;;5066001;28;20036;-86
2021/12/23 12:45:59;;;;;;;17.45;7.13;;;0.40;99.90;;;;;;5077534;28;20062;-86
2021/12/23 12:48:53;;;;;;;26.70;12.10;;;0.50;99.90;;;;;;5081469;28;20031;-86
2021/12/23 12:51:21;;;;;;;18.17;8.25;;;0.40;99.90;;;;;;5061582;28;20044;-87
2021/12/23 12:54:03;;;;;;;6.35;3.15;;;0.40;99.90;;;;;;5064198;28;20048;-86
2021/12/23 12:56:31;;;;;;;14.45;7.30;;;0.40;99.90;;;;;;5073587;28;20584;-86
2021/12/23 12:58:56;;;;;;;10.70;5.95;;;0.40;99.90;;;;;;5067297;28;20409;-86
2021/12/23 13:01:44;;;;;;;11.07;6.05;;;0.40;99.90;;;;;;5070204;28;20040;-86
2021/12/23 13:04:30;;;;;;;9.40;5.00;;;0.30;99.90;;;;;;5081601;28;20461;-86
2021/12/23 13:07:34;;;;;;;4.32;2.95;;;0.40;99.90;;;;;;5074929;28;20035;-86
2021/12/23 13:10:27;;;;;;;10.30;4.85;;;0.40;99.90;;;;;;5060864;28;20058;-87
2021/12/23 13:13:00;;;;;;;15.05;6.97;;;0.40;99.90;;;;;;5061239;28;20084;-87
2021/12/23 13:15:28;;;;;;;8.80;3.70;;;0.40;99.90;;;;;;5060660;28;20547;-87
2021/12/23 13:18:18;;;;;;;3.83;2.65;;;0.40;99.90;;;;;;5070091;27;20104;-87
2021/12/23 13:20:50;;;;;;;11.48;6.00;;;0.40;99.90;;;;;;5072423;28;20044;-84
2021/12/23 13:23:33;;;;;;;16.90;8.45;;;0.40;99.90;;;;;;5082725;28;20035;-84
2021/12/23 13:26:10;;;;;;;11.95;6.85;;;0.40;99.90;;;;;;5063476;28;20080;-85
2021/12/23 13:28:52;;;;;;;2.65;1.67;;;0.40;99.90;;;;;;5060553;28;20043;-84
2021/12/23 13:31:28;;;;;;;1.35;1.13;;;0.40;99.90;;;;;;5077420;28;20554;-84
2021/12/23 13:34:03;;;;;;;13.73;6.50;;;0.50;99.90;;;;;;5080379;28;20090;-84
2021/12/23 13:36:50;;;;;;;15.60;5.40;;;0.50;99.90;;;;;;5079178;27;20036;-84
2021/12/23 13:39:31;;;;;;;2.10;1.85;;;0.50;99.90;;;;;;5100441;27;20061;-85
2021/12/23 13:42:03;;;;;;;10.13;4.60;;;0.50;99.90;;;;;;5101114;27;20087;-84
2021/12/23 13:44:46;;;;;;;14.63;6.90;;;0.60;99.90;;;;;;5090139;28;20082;-85
2021/12/23 13:47:18;;;;;;;17.67;9.48;;;0.50;99.90;;;;;;5071594;28;20123;-84
2021/12/23 13:49:56;;;;;;;18.70;9.75;;;0.60;99.90;;;;;;5082003;28;20189;-84
2021/12/23 13:52:57;;;;;;;6.80;4.50;;;0.60;99.90;;;;;;5065568;28;20492;-84
2021/12/23 13:55:27;;;;;;;8.50;4.95;;;0.60;99.90;;;;;;5059625;28;20071;-85
2021/12/23 13:57:56;;;;;;;9.57;4.80;;;1.30;99.90;;;;;;5072507;28;20036;-85
2021/12/23 14:00:33;;;;;;;8.80;5.28;;;0.70;99.90;;;;;;5092323;27;20088;-84
2021/12/23 14:03:09;;;;;;;9.23;5.07;;;0.90;99.90;;;;;;5074122;28;20062;-84
2021/12/23 14:05:40;;;;;;;7.90;4.32;;;0.80;99.90;;;;;;5062294;28;20039;-85
2021/12/23 14:08:06;;;;;;;4.68;3.47;;;0.80;99.90;;;;;;5084675;28;20086;-84
2021/12/23 14:10:33;;;;;;;9.20;4.82;;;0.80;99.90;;;;;;5070988;28;20130;-87